createdAt,value
2023-02-09T00:01:25.394Z,90.52
2023-02-09T00:03:53.550Z,91.96
2023-02-09T00:06:23.132Z,93.74
2023-02-09T00:08:51.400Z,91.46
2023-02-09T00:11:21.722Z,93.10
2023-02-09T00:13:49.709Z,91.14
2023-02-09T00:16:17.488Z,92.58
2023-02-09T00:18:45.153Z,94.73
2023-02-09T00:21:12.911Z,93.78
2023-02-09T00:23:42.169Z,92.55
2023-02-09T00:26:12.389Z,92.52
2023-02-09T00:28:44.342Z,93.30
2023-02-09T00:31:14.796Z,95.34
2023-02-09T00:33:42.547Z,99.22
2023-02-09T00:36:14.099Z,97.53
2023-02-09T00:38:44.783Z,98.56
2023-02-09T00:41:14.102Z,100.00
2023-02-09T00:43:42.569Z,98.85
2023-02-09T00:46:10.854Z,98.94
2023-02-09T00:48:39.847Z,99.35
2023-02-09T00:51:07.514Z,99.06
2023-02-09T00:53:36.681Z,99.58
2023-02-09T00:56:04.441Z,96.68
2023-02-09T00:58:32.807Z,99.29
2023-02-09T01:01:00.466Z,98.87
2023-02-09T01:03:28.302Z,99.21
2023-02-09T01:05:59.297Z,98.25
2023-02-09T01:08:26.978Z,99.07
2023-02-09T01:10:54.638Z,98.34
2023-02-09T01:13:22.443Z,98.62
2023-02-09T01:15:50.345Z,100.00
2023-02-09T01:18:18.112Z,100.00
2023-02-09T01:20:46.174Z,100.00
2023-02-09T01:23:15.395Z,100.00
2023-02-09T01:25:44.365Z,100.00
2023-02-09T01:28:12.095Z,100.00
2023-02-09T01:30:39.949Z,100.00
2023-02-09T01:33:07.742Z,100.00
2023-02-09T01:35:35.431Z,100.00
2023-02-09T01:38:03.204Z,96.85
2023-02-09T01:40:32.182Z,91.07
2023-02-09T01:42:59.795Z,88.59
2023-02-09T01:45:30.779Z,86.22
2023-02-09T01:48:01.350Z,86.74
2023-02-09T01:50:34.483Z,87.02
2023-02-09T01:53:03.633Z,85.72
2023-02-09T01:55:35.589Z,83.93
2023-02-09T01:58:08.365Z,84.71
2023-02-09T02:00:36.481Z,83.62
2023-02-09T02:03:08.982Z,83.16
2023-02-09T02:05:40.109Z,83.75
2023-02-09T02:08:13.230Z,84.39
2023-02-09T02:10:42.436Z,82.66
2023-02-09T02:13:10.320Z,82.92
2023-02-09T02:15:48.031Z,82.80
2023-02-09T02:18:31.625Z,83.34
2023-02-09T02:21:18.208Z,84.05
2023-02-09T02:23:59.245Z,84.70
2023-02-09T02:26:49.850Z,84.30
2023-02-09T02:29:37.349Z,82.54
2023-02-09T02:32:16.950Z,83.74
2023-02-09T02:34:51.173Z,84.29
2023-02-09T02:37:38.516Z,85.41
2023-02-09T02:40:18.084Z,84.46
2023-02-09T02:42:53.275Z,85.23
2023-02-09T02:45:33.797Z,84.21
2023-02-09T02:48:07.974Z,83.22
2023-02-09T02:50:40.904Z,83.09
2023-02-09T02:53:11.690Z,82.96
2023-02-09T02:55:40.181Z,83.08
2023-02-09T02:58:10.842Z,82.57
2023-02-09T03:00:44.966Z,84.60
2023-02-09T03:03:19.628Z,84.85
2023-02-09T03:05:48.885Z,84.83
2023-02-09T03:08:16.532Z,85.00
2023-02-09T03:10:44.841Z,85.17
2023-02-09T03:13:24.669Z,84.65
2023-02-09T03:16:03.226Z,84.94
2023-02-09T03:18:35.293Z,85.62
2023-02-09T03:21:08.137Z,85.16
2023-02-09T03:23:40.993Z,85.73
2023-02-09T03:26:12.289Z,84.42
2023-02-09T03:28:42.269Z,84.96
2023-02-09T03:31:10.287Z,85.39
2023-02-09T03:33:40.442Z,87.29
2023-02-09T03:36:10.800Z,85.13
2023-02-09T03:38:38.400Z,84.73
2023-02-09T03:41:07.964Z,86.76
2023-02-09T03:43:53.437Z,86.24
2023-02-09T03:46:21.167Z,85.91
2023-02-09T03:48:50.908Z,86.11
2023-02-09T03:51:18.558Z,86.07
2023-02-09T03:53:47.084Z,88.07
2023-02-09T03:56:14.746Z,88.67
2023-02-09T03:58:42.489Z,87.72
2023-02-09T04:01:11.920Z,87.17
2023-02-09T04:03:40.670Z,87.82
2023-02-09T04:06:10.878Z,86.81
2023-02-09T04:08:38.651Z,86.92
2023-02-09T04:11:06.483Z,87.48
2023-02-09T04:13:34.265Z,88.64
2023-02-09T04:16:01.909Z,88.98
2023-02-09T04:18:29.598Z,89.58
2023-02-09T04:20:57.242Z,90.49
2023-02-09T04:23:26.202Z,90.62
2023-02-09T04:25:53.827Z,89.54
2023-02-09T04:28:21.583Z,88.83
2023-02-09T04:30:53.706Z,88.91
2023-02-09T04:33:21.429Z,90.48
2023-02-09T04:35:49.141Z,90.71
2023-02-09T04:38:19.319Z,89.96
2023-02-09T04:40:49.236Z,90.07
2023-02-09T04:43:17.161Z,90.40
2023-02-09T04:45:44.828Z,91.54
2023-02-09T04:48:14.622Z,92.40
2023-02-09T04:50:42.693Z,94.40
2023-02-09T04:53:10.951Z,95.30
2023-02-09T04:55:39.021Z,94.59
2023-02-09T04:58:26.036Z,95.34
2023-02-09T05:00:56.021Z,95.50
2023-02-09T05:03:24.784Z,95.26
2023-02-09T05:05:55.521Z,95.78
2023-02-09T05:08:23.375Z,96.81
2023-02-09T05:10:51.439Z,97.82
2023-02-09T05:13:21.296Z,98.79
2023-02-09T05:15:48.978Z,98.90
2023-02-09T05:18:17.384Z,98.13
2023-02-09T05:20:46.367Z,97.89
2023-02-09T05:23:14.229Z,99.56
2023-02-09T05:25:42.061Z,100.00
2023-02-09T05:28:09.766Z,99.74
2023-02-09T05:30:38.774Z,98.90
2023-02-09T05:33:06.443Z,100.00
2023-02-09T05:35:34.432Z,100.00
2023-02-09T05:38:02.081Z,100.00
2023-02-09T05:40:29.775Z,100.00
2023-02-09T05:42:57.458Z,100.00
2023-02-09T05:45:25.201Z,100.00
2023-02-09T05:47:54.527Z,100.00
2023-02-09T05:50:22.242Z,100.00
2023-02-09T05:52:49.913Z,100.00
2023-02-09T05:55:17.805Z,100.00
2023-02-09T05:57:45.449Z,100.00
2023-02-09T06:00:14.320Z,100.00
2023-02-09T06:02:42.010Z,100.00
2023-02-09T06:05:10.970Z,100.00
2023-02-09T06:07:38.737Z,100.00
2023-02-09T06:10:06.769Z,100.00
2023-02-09T06:12:34.412Z,100.00
2023-02-09T06:15:02.204Z,100.00
2023-02-09T06:17:29.861Z,100.00
2023-02-09T06:19:57.520Z,100.00
2023-02-09T06:22:26.560Z,100.00
2023-02-09T06:24:54.264Z,100.00
2023-02-09T06:27:22.016Z,100.00
2023-02-09T06:29:49.723Z,100.00
2023-02-09T06:32:17.483Z,100.00
2023-02-09T06:34:45.137Z,100.00
2023-02-09T06:37:12.961Z,100.00
2023-02-09T06:39:41.994Z,100.00
2023-02-09T06:42:09.633Z,100.00
2023-02-09T06:44:37.279Z,100.00
2023-02-09T06:47:05.590Z,100.00
2023-02-09T06:49:33.562Z,100.00
2023-02-09T06:52:01.352Z,100.00
2023-02-09T06:54:29.308Z,100.00
2023-02-09T06:56:58.263Z,100.00
2023-02-09T06:59:26.091Z,100.00
2023-02-09T07:01:55.153Z,100.00
2023-02-09T07:04:23.156Z,100.00
2023-02-09T07:06:50.822Z,100.00
2023-02-09T07:09:18.583Z,100.00
2023-02-09T07:11:46.258Z,100.00
2023-02-09T07:14:16.332Z,100.00
2023-02-09T07:16:43.917Z,100.00
2023-02-09T07:19:11.560Z,100.00
2023-02-09T07:21:39.313Z,100.00
2023-02-09T07:24:07.306Z,100.00
2023-02-09T07:26:34.959Z,100.00
2023-02-09T07:29:02.752Z,100.00
2023-02-09T07:31:31.952Z,100.00
2023-02-09T07:33:59.656Z,100.00
2023-02-09T07:36:27.355Z,100.00
2023-02-09T07:38:56.325Z,100.00
2023-02-09T07:41:25.184Z,100.00
2023-02-09T07:43:53.346Z,100.00
2023-02-09T07:46:22.823Z,100.00
2023-02-09T07:48:52.510Z,100.00
2023-02-09T07:51:25.143Z,100.00
2023-02-09T07:53:53.482Z,100.00
2023-02-09T07:56:21.204Z,100.00
2023-02-09T07:58:48.991Z,100.00
2023-02-09T08:01:17.853Z,100.00
2023-02-09T08:03:48.046Z,100.00
2023-02-09T08:06:26.051Z,100.00
2023-02-09T08:08:58.278Z,100.00
2023-02-09T08:11:30.281Z,100.00
2023-02-09T08:14:00.125Z,100.00
2023-02-09T08:16:30.876Z,98.16
2023-02-09T08:19:03.077Z,97.75
2023-02-09T08:21:36.337Z,96.03
2023-02-09T08:24:05.473Z,94.86
2023-02-09T08:26:33.721Z,94.59
2023-02-09T08:29:01.399Z,93.57
2023-02-09T08:31:29.222Z,92.20
2023-02-09T08:33:56.892Z,91.75
2023-02-09T08:36:24.525Z,90.61
2023-02-09T08:38:53.528Z,89.92
2023-02-09T08:41:21.214Z,88.63
2023-02-09T08:43:49.614Z,84.21
2023-02-09T08:46:17.617Z,85.29
2023-02-09T08:48:47.096Z,84.35
2023-02-09T08:51:16.413Z,84.55
2023-02-09T08:53:46.132Z,84.40
2023-02-09T08:56:15.126Z,81.58
2023-02-09T08:58:42.767Z,81.80
2023-02-09T09:01:10.785Z,80.79
2023-02-09T09:03:38.499Z,79.95
2023-02-09T09:06:07.842Z,77.00
2023-02-09T09:08:36.851Z,77.77
2023-02-09T09:11:06.287Z,78.28
2023-02-09T09:13:35.440Z,77.80
2023-02-09T09:16:05.084Z,77.97
2023-02-09T09:18:33.511Z,77.10
2023-02-09T09:21:01.345Z,75.57
2023-02-09T09:23:28.981Z,75.71
2023-02-09T09:26:01.570Z,75.54
2023-02-09T09:28:29.586Z,74.56
2023-02-09T09:30:59.723Z,73.67
2023-02-09T09:33:27.500Z,72.88
2023-02-09T09:35:55.189Z,73.91
2023-02-09T09:38:22.896Z,73.58
2023-02-09T09:40:50.638Z,72.40
2023-02-09T09:43:24.837Z,70.83
2023-02-09T09:45:52.717Z,70.46
2023-02-09T09:48:24.702Z,69.31
2023-02-09T09:50:55.245Z,67.84
2023-02-09T09:53:28.730Z,67.67
2023-02-09T09:55:59.220Z,66.75
2023-02-09T09:58:30.132Z,67.56
2023-02-09T10:00:58.323Z,63.67
2023-02-09T10:03:27.733Z,64.01
2023-02-09T10:05:58.363Z,62.36
2023-02-09T10:08:32.454Z,63.79
2023-02-09T10:11:04.481Z,63.30
2023-02-09T10:13:35.806Z,62.69
2023-02-09T10:16:04.271Z,63.82
2023-02-09T10:18:38.050Z,63.57
2023-02-09T10:21:07.927Z,62.59
2023-02-09T10:23:41.025Z,62.71
2023-02-09T10:26:22.444Z,61.22
2023-02-09T10:28:51.786Z,62.56
2023-02-09T10:31:25.057Z,61.90
2023-02-09T10:33:58.841Z,62.74
2023-02-09T10:36:31.349Z,62.46
2023-02-09T10:39:14.983Z,61.28
2023-02-09T10:41:45.646Z,61.57
2023-02-09T10:44:20.123Z,61.72
2023-02-09T10:46:48.404Z,62.17
2023-02-09T10:49:35.251Z,62.41
2023-02-09T10:52:14.873Z,60.60
2023-02-09T10:54:43.470Z,60.90
2023-02-09T10:57:25.764Z,61.05
2023-02-09T10:59:55.572Z,60.78
2023-02-09T11:02:37.171Z,59.39
2023-02-09T11:05:28.250Z,60.37
2023-02-09T11:08:00.006Z,59.54
2023-02-09T11:10:30.278Z,59.76
2023-02-09T11:12:59.109Z,59.01
2023-02-09T11:15:29.873Z,58.96
2023-02-09T11:18:06.562Z,60.04
2023-02-09T11:20:40.357Z,59.64
2023-02-09T11:23:27.932Z,59.33
2023-02-09T11:26:02.339Z,58.59
2023-02-09T11:28:41.950Z,59.71
2023-02-09T11:31:25.100Z,61.03
2023-02-09T11:34:04.026Z,59.07
2023-02-09T11:36:45.420Z,59.41
2023-02-09T11:39:19.678Z,58.52
2023-02-09T11:42:11.522Z,58.85
2023-02-09T11:44:45.108Z,58.63
2023-02-09T11:47:18.956Z,59.78
2023-02-09T11:49:49.512Z,59.44
2023-02-09T11:52:24.798Z,58.63
2023-02-09T11:54:57.747Z,58.80
2023-02-09T11:57:34.385Z,58.95
2023-02-09T12:00:05.489Z,57.78
2023-02-09T12:02:46.064Z,59.54
2023-02-09T12:05:18.804Z,58.68
2023-02-09T12:08:13.331Z,59.17
2023-02-09T12:10:48.869Z,59.06
2023-02-09T12:13:29.445Z,58.79
2023-02-09T12:16:02.097Z,58.79
2023-02-09T12:18:32.929Z,58.95
2023-02-09T12:21:03.693Z,58.34
2023-02-09T12:23:34.400Z,59.06
2023-02-09T12:26:03.267Z,57.60
2023-02-09T12:28:44.136Z,57.84
2023-02-09T12:31:24.565Z,57.66
2023-02-09T12:34:13.513Z,58.46
2023-02-09T12:37:11.390Z,57.37
2023-02-09T12:40:30.074Z,57.10
2023-02-09T12:43:28.067Z,57.74
2023-02-09T12:46:12.976Z,57.55
2023-02-09T12:48:49.457Z,58.76
2023-02-09T12:51:44.890Z,57.82
2023-02-09T12:54:47.208Z,58.24
2023-02-09T12:57:57.996Z,56.87
2023-02-09T13:00:43.891Z,56.62
2023-02-09T13:03:20.357Z,56.03
2023-02-09T13:05:49.728Z,55.16
2023-02-09T13:08:25.058Z,56.31
2023-02-09T13:10:58.449Z,55.75
2023-02-09T13:13:34.850Z,57.06
2023-02-09T13:16:31.799Z,56.26
2023-02-09T13:19:07.314Z,55.78
2023-02-09T13:21:43.700Z,54.97
2023-02-09T13:24:14.146Z,55.11
2023-02-09T13:26:50.993Z,55.48
2023-02-09T13:29:22.157Z,56.13
2023-02-09T13:32:00.398Z,54.53
2023-02-09T13:34:35.538Z,55.80
2023-02-09T13:37:20.980Z,55.26
2023-02-09T13:39:55.323Z,56.65
2023-02-09T13:42:25.211Z,55.12
2023-02-09T13:44:55.262Z,55.73
2023-02-09T13:47:25.847Z,56.30
2023-02-09T13:49:58.427Z,56.53
2023-02-09T13:52:26.812Z,55.67
2023-02-09T13:54:55.099Z,56.35
2023-02-09T13:57:31.911Z,55.90
2023-02-09T14:00:07.979Z,55.44
2023-02-09T14:02:50.947Z,55.39
2023-02-09T14:05:27.388Z,54.91
2023-02-09T14:07:55.861Z,55.49
2023-02-09T14:10:25.417Z,54.51
2023-02-09T14:12:59.906Z,54.39
2023-02-09T14:15:51.859Z,55.77
2023-02-09T14:18:33.820Z,54.70
2023-02-09T14:21:18.015Z,54.76
2023-02-09T14:23:48.478Z,55.10
2023-02-09T14:26:23.634Z,54.82
2023-02-09T14:28:54.220Z,56.17
2023-02-09T14:31:23.904Z,55.62
2023-02-09T14:33:55.733Z,55.58
2023-02-09T14:36:27.713Z,54.93
2023-02-09T14:39:05.788Z,55.78
2023-02-09T14:41:36.417Z,55.81
2023-02-09T14:44:17.781Z,55.04
2023-02-09T14:46:50.157Z,53.79
2023-02-09T14:49:20.119Z,53.81
2023-02-09T14:51:49.146Z,53.56
2023-02-09T14:54:24.218Z,54.08
2023-02-09T14:56:53.239Z,53.32
2023-02-09T14:59:21.857Z,54.24
2023-02-09T15:01:51.238Z,53.82
2023-02-09T15:04:20.536Z,54.15
2023-02-09T15:06:50.202Z,54.90
2023-02-09T15:09:22.564Z,55.62
2023-02-09T15:12:08.348Z,55.85
2023-02-09T15:14:42.584Z,55.13
2023-02-09T15:17:15.625Z,56.67
2023-02-09T15:19:45.382Z,56.25
2023-02-09T15:22:15.066Z,57.37
2023-02-09T15:24:43.987Z,55.67
2023-02-09T15:27:19.715Z,55.42
2023-02-09T15:29:47.414Z,55.40
2023-02-09T15:32:16.897Z,54.89
2023-02-09T15:34:46.270Z,53.63
2023-02-09T15:37:21.328Z,54.89
2023-02-09T15:39:50.009Z,55.76
2023-02-09T15:42:36.674Z,56.78
2023-02-09T15:45:34.115Z,55.80
2023-02-09T15:48:01.773Z,56.16
2023-02-09T15:50:32.768Z,58.77
2023-02-09T15:53:02.804Z,59.31
2023-02-09T15:55:31.407Z,58.77
2023-02-09T15:58:00.253Z,58.42
2023-02-09T16:00:30.193Z,60.69
2023-02-09T16:03:00.585Z,63.47
2023-02-09T16:05:31.056Z,64.50
2023-02-09T16:08:00.108Z,66.94
2023-02-09T16:10:30.582Z,68.18
2023-02-09T16:12:58.190Z,70.18
2023-02-09T16:15:27.340Z,70.99
2023-02-09T16:17:55.039Z,73.19
2023-02-09T16:20:25.559Z,78.20
2023-02-09T16:22:57.375Z,79.19
2023-02-09T16:25:26.795Z,81.17
2023-02-09T16:27:55.867Z,81.51
2023-02-09T16:30:25.390Z,81.75
2023-02-09T16:32:53.097Z,82.59
2023-02-09T16:35:22.653Z,84.44
2023-02-09T16:37:52.025Z,86.68
2023-02-09T16:40:29.420Z,87.94
2023-02-09T16:42:58.869Z,88.84
2023-02-09T16:45:29.909Z,88.58
2023-02-09T16:47:59.745Z,89.71
2023-02-09T16:50:33.087Z,93.51
2023-02-09T16:53:03.468Z,95.17
2023-02-09T16:55:35.037Z,93.88
2023-02-09T16:58:06.557Z,92.99
2023-02-09T17:00:36.672Z,93.94
2023-02-09T17:03:14.064Z,93.99
2023-02-09T17:05:43.541Z,97.66
2023-02-09T17:08:18.029Z,99.30
2023-02-09T17:10:48.087Z,99.83
2023-02-09T17:13:17.520Z,100.00
2023-02-09T17:15:47.999Z,98.21
2023-02-09T17:18:18.180Z,97.42
2023-02-09T17:20:48.781Z,99.90
2023-02-09T17:23:18.700Z,100.00
2023-02-09T17:25:48.478Z,100.00
2023-02-09T17:28:16.764Z,99.86
2023-02-09T17:30:44.889Z,98.99
2023-02-09T17:33:19.364Z,99.49
2023-02-09T17:36:22.276Z,100.00
2023-02-09T17:38:37.391Z,100.00
2023-02-09T17:41:14.152Z,100.00
2023-02-09T17:43:42.403Z,100.00
2023-02-09T17:46:12.138Z,100.00
2023-02-09T17:48:40.467Z,100.00
2023-02-09T17:51:19.391Z,100.00
2023-02-09T17:53:47.240Z,100.00
2023-02-09T17:56:16.774Z,100.00
2023-02-09T17:58:45.254Z,100.00
2023-02-09T18:01:25.335Z,100.00
2023-02-09T18:03:54.448Z,100.00
2023-02-09T18:06:26.122Z,100.00
2023-02-09T18:08:53.798Z,100.00
2023-02-09T18:11:40.745Z,100.00
2023-02-09T18:14:08.413Z,100.00
2023-02-09T18:16:37.580Z,100.00
2023-02-09T18:19:05.246Z,100.00
2023-02-09T18:21:32.976Z,100.00
2023-02-09T18:24:00.584Z,100.00
2023-02-09T18:26:30.201Z,100.00
2023-02-09T18:28:57.812Z,100.00
2023-02-09T18:31:25.426Z,100.00
2023-02-09T18:33:54.035Z,100.00
2023-02-09T18:36:22.045Z,100.00
2023-02-09T18:38:50.891Z,100.00
2023-02-09T18:41:18.700Z,100.00
2023-02-09T18:43:47.935Z,100.00
2023-02-09T18:46:16.395Z,100.00
2023-02-09T18:48:44.076Z,100.00
2023-02-09T18:51:11.730Z,100.00
2023-02-09T18:53:39.923Z,100.00
2023-02-09T18:56:07.772Z,100.00
2023-02-09T18:58:36.541Z,100.00
2023-02-09T19:01:11.174Z,100.00
2023-02-09T19:03:38.814Z,100.00
2023-02-09T19:06:10.801Z,100.00
2023-02-09T19:08:39.143Z,100.00
2023-02-09T19:11:09.142Z,100.00
2023-02-09T19:13:37.493Z,100.00
2023-02-09T19:16:11.284Z,100.00
2023-02-09T19:18:39.462Z,100.00
2023-02-09T19:21:08.004Z,100.00
2023-02-09T19:23:35.631Z,100.00
2023-02-09T19:26:03.974Z,100.00
2023-02-09T19:28:31.990Z,100.00
2023-02-09T19:30:59.953Z,100.00
2023-02-09T19:33:29.274Z,100.00
2023-02-09T19:35:57.722Z,100.00
2023-02-09T19:38:25.865Z,100.00
2023-02-09T19:41:08.613Z,100.00
2023-02-09T19:43:37.674Z,100.00
2023-02-09T19:46:05.794Z,100.00
2023-02-09T19:48:34.858Z,100.00
2023-02-09T19:51:03.028Z,100.00
2023-02-09T19:53:30.631Z,100.00
2023-02-09T19:55:58.309Z,100.00
2023-02-09T19:58:26.016Z,100.00
2023-02-09T20:00:55.934Z,100.00
2023-02-09T20:03:23.892Z,100.00
2023-02-09T20:05:53.025Z,100.00
2023-02-09T20:08:21.500Z,100.00
2023-02-09T20:10:49.385Z,100.00
2023-02-09T20:13:17.278Z,100.00
2023-02-09T20:15:46.008Z,100.00
2023-02-09T20:18:16.033Z,100.00
2023-02-09T20:20:45.589Z,100.00
2023-02-09T20:23:15.491Z,100.00
2023-02-09T20:25:43.667Z,100.00
2023-02-09T20:28:13.433Z,100.00
2023-02-09T20:30:42.474Z,100.00
2023-02-09T20:33:10.809Z,100.00
2023-02-09T20:35:40.788Z,100.00
2023-02-09T20:38:08.836Z,100.00
2023-02-09T20:40:38.276Z,100.00
2023-02-09T20:43:23.789Z,100.00
2023-02-09T20:46:09.091Z,100.00
2023-02-09T20:48:36.851Z,100.00
2023-02-09T20:51:05.114Z,100.00
2023-02-09T20:53:33.289Z,100.00
2023-02-09T20:56:02.238Z,100.00
2023-02-09T20:58:29.912Z,100.00
2023-02-09T21:00:57.567Z,100.00
2023-02-09T21:03:25.295Z,100.00
2023-02-09T21:05:52.918Z,100.00
2023-02-09T21:08:22.195Z,100.00
2023-02-09T21:10:55.881Z,100.00
2023-02-09T21:13:25.149Z,100.00
2023-02-09T21:15:53.043Z,100.00
2023-02-09T21:18:21.711Z,100.00
2023-02-09T21:20:49.872Z,100.00
2023-02-09T21:23:18.095Z,100.00
2023-02-09T21:25:45.924Z,100.00
2023-02-09T21:28:14.952Z,100.00
2023-02-09T21:30:45.141Z,100.00
2023-02-09T21:33:12.903Z,100.00
2023-02-09T21:35:41.586Z,100.00
2023-02-09T21:38:09.218Z,100.00
2023-02-09T21:40:36.866Z,100.00
2023-02-09T21:43:04.527Z,100.00
2023-02-09T21:45:32.185Z,100.00
2023-02-09T21:48:01.312Z,100.00
2023-02-09T21:50:28.909Z,100.00
2023-02-09T21:52:56.652Z,100.00
2023-02-09T21:55:24.350Z,100.00
2023-02-09T21:57:52.058Z,100.00
2023-02-09T22:00:19.976Z,100.00
2023-02-09T22:02:47.608Z,100.00
2023-02-09T22:05:16.655Z,100.00
2023-02-09T22:07:48.087Z,100.00
2023-02-09T22:10:16.636Z,100.00
2023-02-09T22:12:44.766Z,100.00
2023-02-09T22:15:12.882Z,100.00
2023-02-09T22:17:40.744Z,100.00
2023-02-09T22:20:10.217Z,100.00
2023-02-09T22:22:39.826Z,100.00
2023-02-09T22:25:08.579Z,100.00
2023-02-09T22:27:36.236Z,100.00
2023-02-09T22:30:04.218Z,100.00
2023-02-09T22:32:31.859Z,100.00
2023-02-09T22:34:59.520Z,100.00
2023-02-09T22:37:27.123Z,100.00
2023-02-09T22:39:56.060Z,100.00
2023-02-09T22:42:23.665Z,100.00
2023-02-09T22:44:51.309Z,100.00
2023-02-09T22:47:18.987Z,100.00
2023-02-09T22:49:47.061Z,100.00
2023-02-09T22:52:14.712Z,100.00
2023-02-09T22:54:42.411Z,100.00
2023-02-09T22:57:11.822Z,100.00
2023-02-09T22:59:39.481Z,100.00
2023-02-09T23:02:07.310Z,100.00
2023-02-09T23:04:35.093Z,100.00
2023-02-09T23:07:03.947Z,100.00
2023-02-09T23:09:32.107Z,100.00
2023-02-09T23:11:59.753Z,100.00
2023-02-09T23:14:28.906Z,100.00
2023-02-09T23:16:56.626Z,100.00
2023-02-09T23:19:24.361Z,100.00
2023-02-09T23:21:53.163Z,100.00
2023-02-09T23:24:24.311Z,100.00
2023-02-09T23:26:52.599Z,100.00
2023-02-09T23:29:20.302Z,100.00
2023-02-09T23:31:49.695Z,100.00
2023-02-09T23:34:20.527Z,100.00
2023-02-09T23:36:48.607Z,100.00
2023-02-09T23:39:18.508Z,100.00
2023-02-09T23:41:46.461Z,100.00
2023-02-09T23:44:14.212Z,100.00
2023-02-09T23:46:42.134Z,100.00
2023-02-09T23:49:11.697Z,100.00
2023-02-09T23:51:39.828Z,100.00
2023-02-09T23:54:08.223Z,100.00
2023-02-09T23:56:37.626Z,100.00
2023-02-09T23:59:06.805Z,100.00
